Prospect Creek, Prospect Cree, AK

6:58 AM AKDT on July 07, 2015 (GMT -0800)
Bettles | | Change Station
CLOSE
Current Station
Airport
Location: Bettles,
Elevation: 643 ft
Nearby Weather Stations
Active Advisory: Dense Smoke Advisory Active Notice: Record Report

Elev 643 ft 66.91 °N, 151.53 °W | Updated 5 minutes ago

Smoke
Smoke
66 °F
Feels Like 66 °F
N
5
Wind Variable Wind from ESE

Today
High -- | Low -- °F
--% Chance of Precip.
Yesterday
High -- | Low -- °F
Precip. -- in
2:39 AM 1:35 AM
Waning Gibbous, 64% visible
Pressure 29.73 in
Visibility 6.0 miles
Clouds Mostly Cloudy 4500 ft
Overcast 6000 ft
Dew Point 47 °F
Humidity 50%
Rainfall 0.00 in
Snow Depth Not available.
UV 0 out of 12
Pollen Not available.
Air Quality Not available.
Flu Activity Not available.
METAR PABT 071453Z 12004KT 6SM FU BKN045 OVC060 19/08 A2971 RMK AO2 SLP065 T01890083 56002

More Conditions Fewer Conditions

Pressure 29.73 in
Visibility 6.0 miles
Clouds Mostly Cloudy 4500 ft
Overcast 6000 ft
Dew Point 47 °F
Humidity 50%
Rainfall 0.00 in
Snow Depth Not available.
UV 0 out of 12
Pollen Not available.
Air Quality Not available.
Flu Activity Not available.
METAR PABT 071453Z 12004KT 6SM FU BKN045 OVC060 19/08 A2971 RMK AO2 SLP065 T01890083 56002

More Conditions Fewer Conditions

10-Day Weather Forecast

×

Almanac

Astronomy

Jul. 07, 2015 Rise Set
Actual Time
Civil Twilight
Nautical Twilight
Astronomical Twilight
Moon
Length of Visible Light
Length of Day
Tomorrow will be .
, % of the Moon is Illuminated

Today's Extremes

State Highs State Lows

Community

WunderPhotos

Upload Photos

1,835,811 photos uploaded!

WunderBlogs® & News

Nearby

Air Quality

  Air Quality AQ Index Pollutant
Not available.

Snow Depth

Station Depth Elevation

Earthquake Activity

City Distance Mag. Time & Date
Minimum magnitude displayed is 2.5.

Coastal Water Temperatures

Place Temperature

Stations

Nearby Weather Stations

Station Location Temp. Windchill Dew Point Humidity Wind Precip. Elev Updated Type
                   
Dense Smoke Advisory
Statement as of 3:57 AM AKDT on July 07, 2015

... Dense smoke advisory remains in effect until midnight akdt
tonight...

* location... in the Koyukuk River Valley.

* Visibility... less than one mile at times.

* Timing... conditions will improve tonight as a weather front
moves through but expect the smoke to move back into the area
Wednesday. Lowest visibility will be around Allakaket.

Precautionary/preparedness actions...

A dense smoke advisory means visibilities are limited to one mile
or less in wildfire smoke. If outdoors... prolonged physical
exertion should be reduced or stopped.